KLM550 OKKK-OBBI
Flight info
| Callsign | KLM550 |
|---|---|
| Flight time | 0h 44m |
| Altitude | 25000 |
| Route | BOXIK B416 IMDOX P975 LONOS L703 KOBOK |
| Aircraft | B744/H-SDE3FGHIM1M2RWXY/LB1 |
Departure
| Time | 2026-04-27 15:29 |
|---|---|
| Airport | Kuwait International Airport (OKKK) |
Arrival
| Time | 2026-04-27 16:13 |
|---|---|
| Airport | Bahrain International Airport (OBBI) |
| Time | Latitude | Longitude | Altitude | Speed | Heading |
|---|---|---|---|---|---|
| 2026-04-27 15:05 | 29.24171 | 47.96553 | 219 ft | 0 kts | 155° |
| 2026-04-27 15:22 | 29.24172 | 47.96552 | 219 ft | 1 kts | 155° |
| 2026-04-27 15:23 | 29.24184 | 47.96546 | 219 ft | 3 kts | 140° |
| 2026-04-27 15:23 | 29.24198 | 47.96530 | 219 ft | 3 kts | 136° |
| 2026-04-27 15:23 | 29.24207 | 47.96520 | 219 ft | 2 kts | 143° |
| 2026-04-27 15:23 | 29.24221 | 47.96510 | 219 ft | 3 kts | 168° |
| 2026-04-27 15:24 | 29.24232 | 47.96507 | 219 ft | 3 kts | 207° |
| 2026-04-27 15:24 | 29.24243 | 47.96516 | 219 ft | 3 kts | 241° |
| 2026-04-27 15:24 | 29.24251 | 47.96536 | 219 ft | 3 kts | 248° |
| 2026-04-27 15:24 | 29.24257 | 47.96552 | 219 ft | 1 kts | 246° |
| 2026-04-27 15:25 | 29.24259 | 47.96556 | 219 ft | 0 kts | 246° |
| 2026-04-27 15:26 | 29.24254 | 47.96544 | 219 ft | 8 kts | 247° |
| 2026-04-27 15:27 | 29.24223 | 47.96461 | 219 ft | 12 kts | 247° |
| 2026-04-27 15:27 | 29.24192 | 47.96378 | 219 ft | 11 kts | 247° |
| 2026-04-27 15:27 | 29.24162 | 47.96300 | 219 ft | 11 kts | 246° |
| 2026-04-27 15:27 | 29.24133 | 47.96224 | 219 ft | 10 kts | 246° |
| 2026-04-27 15:28 | 29.24081 | 47.96180 | 219 ft | 10 kts | 189° |
| 2026-04-27 15:28 | 29.24016 | 47.96175 | 219 ft | 9 kts | 169° |
| 2026-04-27 15:28 | 29.23951 | 47.96208 | 219 ft | 17 kts | 152° |
| 2026-04-27 15:28 | 29.23655 | 47.96362 | 219 ft | 81 kts | 154° |
| 2026-04-27 15:29 | 29.22932 | 47.96746 | 220 ft | 148 kts | 154° |
| 2026-04-27 15:29 | 29.21862 | 47.97327 | 424 ft | 187 kts | 156° |
| 2026-04-27 15:29 | 29.20657 | 47.97939 | 1199 ft | 190 kts | 155° |
| 2026-04-27 15:29 | 29.19607 | 47.98928 | 1892 ft | 202 kts | 133° |
| 2026-04-27 15:30 | 29.18854 | 48.00299 | 2317 ft | 209 kts | 121° |
| 2026-04-27 15:30 | 29.18227 | 48.01851 | 2445 ft | 220 kts | 118° |
| 2026-04-27 15:30 | 29.17591 | 48.03492 | 2584 ft | 232 kts | 117° |
| 2026-04-27 15:30 | 29.16937 | 48.05226 | 2739 ft | 246 kts | 116° |
| 2026-04-27 15:31 | 29.16188 | 48.07027 | 2945 ft | 260 kts | 119° |
| 2026-04-27 15:31 | 29.15320 | 48.08901 | 3219 ft | 272 kts | 121° |
| 2026-04-27 15:31 | 29.14398 | 48.10810 | 3759 ft | 276 kts | 121° |
| 2026-04-27 15:31 | 29.13468 | 48.12739 | 4288 ft | 279 kts | 122° |
| 2026-04-27 15:32 | 29.12509 | 48.14663 | 4882 ft | 278 kts | 122° |
| 2026-04-27 15:32 | 29.11552 | 48.16592 | 5454 ft | 281 kts | 122° |
| 2026-04-27 15:32 | 29.10584 | 48.18544 | 5980 ft | 283 kts | 122° |
| 2026-04-27 15:32 | 29.09614 | 48.20500 | 6491 ft | 288 kts | 121° |
| 2026-04-27 15:33 | 29.08626 | 48.22500 | 7063 ft | 290 kts | 121° |
| 2026-04-27 15:33 | 29.07632 | 48.24508 | 7657 ft | 292 kts | 121° |
| 2026-04-27 15:33 | 29.06621 | 48.26550 | 8219 ft | 296 kts | 121° |
| 2026-04-27 15:33 | 29.05608 | 48.28597 | 8814 ft | 298 kts | 121° |
| 2026-04-27 15:34 | 29.04577 | 48.30679 | 9345 ft | 303 kts | 121° |
| 2026-04-27 15:34 | 29.03538 | 48.32782 | 9879 ft | 306 kts | 121° |
| 2026-04-27 15:34 | 29.02478 | 48.34923 | 10317 ft | 315 kts | 121° |
| 2026-04-27 15:34 | 29.01386 | 48.37128 | 10473 ft | 333 kts | 121° |
| 2026-04-27 15:35 | 29.00191 | 48.39537 | 10626 ft | 354 kts | 121° |
| 2026-04-27 15:35 | 28.98973 | 48.41993 | 10758 ft | 374 kts | 121° |
| 2026-04-27 15:35 | 28.97641 | 48.44677 | 10894 ft | 395 kts | 121° |
| 2026-04-27 15:35 | 28.96254 | 48.47473 | 11022 ft | 415 kts | 121° |
| 2026-04-27 15:36 | 28.94827 | 48.50382 | 11461 ft | 426 kts | 121° |
| 2026-04-27 15:36 | 28.93353 | 48.53361 | 12120 ft | 432 kts | 121° |
| 2026-04-27 15:36 | 28.91856 | 48.56374 | 12759 ft | 439 kts | 121° |
| 2026-04-27 15:36 | 28.90355 | 48.59386 | 13358 ft | 447 kts | 121° |
| 2026-04-27 15:37 | 28.88784 | 48.62531 | 14011 ft | 454 kts | 121° |
| 2026-04-27 15:37 | 28.87230 | 48.65639 | 14749 ft | 459 kts | 121° |
| 2026-04-27 15:37 | 28.85637 | 48.68827 | 15477 ft | 465 kts | 122° |
| 2026-04-27 15:37 | 28.84022 | 48.72054 | 16193 ft | 471 kts | 122° |
| 2026-04-27 15:38 | 28.82391 | 48.75315 | 16863 ft | 478 kts | 122° |
| 2026-04-27 15:38 | 28.80725 | 48.78644 | 17535 ft | 484 kts | 122° |
| 2026-04-27 15:38 | 28.79069 | 48.82003 | 18211 ft | 490 kts | 122° |
| 2026-04-27 15:38 | 28.77399 | 48.85406 | 18871 ft | 496 kts | 122° |
| 2026-04-27 15:39 | 28.75690 | 48.88884 | 19380 ft | 503 kts | 122° |
| 2026-04-27 15:39 | 28.74001 | 48.92320 | 20045 ft | 508 kts | 122° |
| 2026-04-27 15:39 | 28.72253 | 48.95928 | 20508 ft | 516 kts | 122° |
| 2026-04-27 15:39 | 28.70530 | 48.99452 | 21111 ft | 520 kts | 122° |
| 2026-04-27 15:40 | 28.68750 | 49.03072 | 21555 ft | 527 kts | 122° |
| 2026-04-27 15:40 | 28.66945 | 49.06728 | 22094 ft | 532 kts | 122° |
| 2026-04-27 15:40 | 28.65130 | 49.10400 | 22622 ft | 535 kts | 123° |
| 2026-04-27 15:40 | 28.63289 | 49.14118 | 23057 ft | 541 kts | 123° |
| 2026-04-27 15:41 | 28.61433 | 49.17868 | 23522 ft | 545 kts | 123° |
| 2026-04-27 15:41 | 28.59349 | 49.21464 | 23953 ft | 542 kts | 134° |
| 2026-04-27 15:41 | 28.56675 | 49.24373 | 24393 ft | 537 kts | 144° |
| 2026-04-27 15:41 | 28.53844 | 49.27169 | 24718 ft | 541 kts | 146° |
| 2026-04-27 15:42 | 28.50743 | 49.29567 | 24749 ft | 538 kts | 151° |
| 2026-04-27 15:42 | 28.47689 | 49.32037 | 24747 ft | 538 kts | 148° |
| 2026-04-27 15:42 | 28.44746 | 49.34661 | 24746 ft | 539 kts | 146° |
| 2026-04-27 15:42 | 28.41903 | 49.37449 | 24746 ft | 541 kts | 143° |
| 2026-04-27 15:43 | 28.39077 | 49.40304 | 24747 ft | 542 kts | 143° |
| 2026-04-27 15:43 | 28.36278 | 49.43081 | 24748 ft | 542 kts | 144° |
| 2026-04-27 15:43 | 28.33433 | 49.45890 | 24761 ft | 542 kts | 144° |
| 2026-04-27 15:43 | 28.30590 | 49.48702 | 24789 ft | 541 kts | 144° |
| 2026-04-27 15:44 | 28.27751 | 49.51514 | 24792 ft | 541 kts | 144° |
| 2026-04-27 15:44 | 28.24917 | 49.54316 | 24791 ft | 541 kts | 144° |
| 2026-04-27 15:44 | 28.22073 | 49.57120 | 24790 ft | 540 kts | 144° |
| 2026-04-27 15:44 | 28.19143 | 49.59777 | 24790 ft | 540 kts | 148° |
| 2026-04-27 15:45 | 28.16138 | 49.62316 | 24789 ft | 539 kts | 149° |
| 2026-04-27 15:45 | 28.13170 | 49.64818 | 24789 ft | 537 kts | 148° |
| 2026-04-27 15:45 | 28.10151 | 49.67399 | 24788 ft | 537 kts | 148° |
| 2026-04-27 15:45 | 28.07171 | 49.69951 | 24786 ft | 537 kts | 148° |
| 2026-04-27 15:46 | 28.04235 | 49.72456 | 24785 ft | 537 kts | 149° |
| 2026-04-27 15:46 | 28.01185 | 49.74895 | 24786 ft | 536 kts | 151° |
| 2026-04-27 15:46 | 27.98104 | 49.77253 | 24784 ft | 535 kts | 151° |
| 2026-04-27 15:46 | 27.95027 | 49.79626 | 24784 ft | 535 kts | 151° |
| 2026-04-27 15:47 | 27.91956 | 49.82010 | 24772 ft | 535 kts | 150° |
| 2026-04-27 15:47 | 27.88902 | 49.84384 | 24769 ft | 535 kts | 151° |
| 2026-04-27 15:47 | 27.85820 | 49.86783 | 24767 ft | 535 kts | 150° |
| 2026-04-27 15:47 | 27.82759 | 49.89163 | 24767 ft | 535 kts | 150° |
| 2026-04-27 15:48 | 27.79679 | 49.91541 | 24772 ft | 535 kts | 151° |
| 2026-04-27 15:48 | 27.76605 | 49.93905 | 24772 ft | 535 kts | 151° |
| 2026-04-27 15:48 | 27.73573 | 49.96236 | 24771 ft | 535 kts | 151° |
| 2026-04-27 15:49 | 27.67434 | 50.00977 | 24771 ft | 535 kts | 151° |
| 2026-04-27 15:49 | 27.64355 | 50.03348 | 24770 ft | 535 kts | 151° |
| 2026-04-27 15:49 | 27.61266 | 50.05718 | 24769 ft | 536 kts | 151° |
| 2026-04-27 15:49 | 27.58180 | 50.08083 | 24772 ft | 536 kts | 151° |
| 2026-04-27 15:50 | 27.55101 | 50.10442 | 24769 ft | 536 kts | 151° |
| 2026-04-27 15:50 | 27.52020 | 50.12800 | 24768 ft | 535 kts | 151° |
| 2026-04-27 15:50 | 27.48975 | 50.15129 | 24633 ft | 522 kts | 151° |
| 2026-04-27 15:50 | 27.45992 | 50.17409 | 24166 ft | 511 kts | 151° |
| 2026-04-27 15:51 | 27.43132 | 50.19638 | 23475 ft | 506 kts | 149° |
| 2026-04-27 15:51 | 27.40307 | 50.21961 | 22686 ft | 497 kts | 149° |
| 2026-04-27 15:51 | 27.37541 | 50.24242 | 21727 ft | 490 kts | 149° |
| 2026-04-27 15:51 | 27.34785 | 50.26495 | 20901 ft | 488 kts | 148° |
| 2026-04-27 15:52 | 27.32048 | 50.28724 | 20226 ft | 482 kts | 148° |
| 2026-04-27 15:52 | 27.29349 | 50.30923 | 19516 ft | 477 kts | 148° |
| 2026-04-27 15:52 | 27.26683 | 50.33093 | 18819 ft | 472 kts | 148° |
| 2026-04-27 15:52 | 27.24028 | 50.35253 | 18116 ft | 467 kts | 148° |
| 2026-04-27 15:53 | 27.21405 | 50.37381 | 17416 ft | 462 kts | 148° |
| 2026-04-27 15:53 | 27.18817 | 50.39476 | 16722 ft | 457 kts | 147° |
| 2026-04-27 15:53 | 27.16255 | 50.41548 | 16029 ft | 453 kts | 147° |
| 2026-04-27 15:53 | 27.13734 | 50.43583 | 15345 ft | 449 kts | 147° |
| 2026-04-27 15:54 | 27.11209 | 50.45620 | 14651 ft | 445 kts | 147° |
| 2026-04-27 15:54 | 27.08716 | 50.47634 | 13972 ft | 440 kts | 147° |
| 2026-04-27 15:54 | 27.06248 | 50.49625 | 13515 ft | 431 kts | 147° |
| 2026-04-27 15:54 | 27.03878 | 50.51535 | 13331 ft | 408 kts | 147° |
| 2026-04-27 15:55 | 27.01627 | 50.53338 | 13195 ft | 386 kts | 147° |
| 2026-04-27 15:55 | 27.00206 | 50.54469 | 13113 ft | 371 kts | 148° |
| 2026-04-27 15:55 | 26.97180 | 50.55865 | 12962 ft | 335 kts | 170° |
| 2026-04-27 15:55 | 26.94987 | 50.56297 | 12853 ft | 315 kts | 174° |
| 2026-04-27 15:56 | 26.93038 | 50.56556 | 12744 ft | 298 kts | 178° |
| 2026-04-27 15:56 | 26.91029 | 50.56721 | 12516 ft | 284 kts | 180° |
| 2026-04-27 15:56 | 26.89087 | 50.56821 | 12128 ft | 277 kts | 181° |
| 2026-04-27 15:56 | 26.87178 | 50.56897 | 11693 ft | 273 kts | 181° |
| 2026-04-27 15:57 | 26.85270 | 50.56974 | 11098 ft | 275 kts | 181° |
| 2026-04-27 15:57 | 26.83352 | 50.57055 | 10538 ft | 278 kts | 181° |
| 2026-04-27 15:57 | 26.81404 | 50.57139 | 10107 ft | 279 kts | 181° |
| 2026-04-27 15:57 | 26.79493 | 50.57222 | 9702 ft | 278 kts | 180° |
| 2026-04-27 15:58 | 26.77562 | 50.57307 | 9314 ft | 277 kts | 180° |
| 2026-04-27 15:58 | 26.75651 | 50.57392 | 8958 ft | 274 kts | 180° |
| 2026-04-27 15:58 | 26.73747 | 50.57478 | 8618 ft | 271 kts | 180° |
| 2026-04-27 15:58 | 26.71872 | 50.57561 | 8289 ft | 268 kts | 180° |
| 2026-04-27 15:59 | 26.70022 | 50.57644 | 8065 ft | 264 kts | 180° |
| 2026-04-27 15:59 | 26.68179 | 50.57726 | 8005 ft | 266 kts | 180° |
| 2026-04-27 15:59 | 26.66325 | 50.57810 | 7905 ft | 267 kts | 180° |
| 2026-04-27 15:59 | 26.64495 | 50.57891 | 7663 ft | 267 kts | 180° |
| 2026-04-27 16:00 | 26.62641 | 50.57973 | 7415 ft | 266 kts | 180° |
| 2026-04-27 16:00 | 26.61395 | 50.58028 | 7244 ft | 264 kts | 179° |
| 2026-04-27 16:00 | 26.58972 | 50.58136 | 6916 ft | 263 kts | 179° |
| 2026-04-27 16:00 | 26.57143 | 50.58217 | 6664 ft | 261 kts | 180° |
| 2026-04-27 16:01 | 26.55332 | 50.58296 | 6416 ft | 260 kts | 179° |
| 2026-04-27 16:01 | 26.53530 | 50.58446 | 6171 ft | 260 kts | 172° |
| 2026-04-27 16:01 | 26.51788 | 50.58971 | 6029 ft | 258 kts | 163° |
| 2026-04-27 16:01 | 26.50196 | 50.59816 | 5977 ft | 247 kts | 149° |
| 2026-04-27 16:02 | 26.48979 | 50.61138 | 5931 ft | 245 kts | 129° |
| 2026-04-27 16:02 | 26.48167 | 50.62777 | 5759 ft | 244 kts | 117° |
| 2026-04-27 16:02 | 26.47558 | 50.64533 | 5581 ft | 239 kts | 111° |
| 2026-04-27 16:02 | 26.47058 | 50.66253 | 5391 ft | 226 kts | 110° |
| 2026-04-27 16:03 | 26.46573 | 50.67892 | 5192 ft | 221 kts | 110° |
| 2026-04-27 16:03 | 26.46062 | 50.69506 | 5010 ft | 220 kts | 111° |
| 2026-04-27 16:03 | 26.45527 | 50.71099 | 5000 ft | 218 kts | 111° |
| 2026-04-27 16:03 | 26.44795 | 50.72573 | 4971 ft | 218 kts | 134° |
| 2026-04-27 16:04 | 26.43510 | 50.73398 | 4799 ft | 216 kts | 165° |
| 2026-04-27 16:04 | 26.42021 | 50.73480 | 4652 ft | 212 kts | 176° |
| 2026-04-27 16:04 | 26.40555 | 50.73426 | 4464 ft | 211 kts | 187° |
| 2026-04-27 16:04 | 26.39172 | 50.72918 | 4269 ft | 212 kts | 211° |
| 2026-04-27 16:05 | 26.38247 | 50.71708 | 4060 ft | 210 kts | 243° |
| 2026-04-27 16:05 | 26.38087 | 50.70103 | 3868 ft | 211 kts | 276° |
| 2026-04-27 16:05 | 26.38661 | 50.68612 | 3739 ft | 209 kts | 295° |
| 2026-04-27 16:05 | 26.39435 | 50.67252 | 3586 ft | 208 kts | 300° |
| 2026-04-27 16:06 | 26.40237 | 50.65907 | 3414 ft | 208 kts | 302° |
| 2026-04-27 16:06 | 26.41045 | 50.64565 | 3245 ft | 208 kts | 303° |
| 2026-04-27 16:06 | 26.41836 | 50.63237 | 3090 ft | 207 kts | 303° |
| 2026-04-27 16:06 | 26.42621 | 50.61892 | 3050 ft | 208 kts | 303° |
| 2026-04-27 16:07 | 26.43408 | 50.60539 | 2998 ft | 208 kts | 303° |
| 2026-04-27 16:07 | 26.44191 | 50.59182 | 2993 ft | 208 kts | 303° |
| 2026-04-27 16:07 | 26.44977 | 50.57821 | 2995 ft | 209 kts | 303° |
| 2026-04-27 16:07 | 26.45728 | 50.56432 | 2995 ft | 209 kts | 294° |
| 2026-04-27 16:08 | 26.45887 | 50.54840 | 2963 ft | 209 kts | 261° |
| 2026-04-27 16:08 | 26.45211 | 50.53462 | 2985 ft | 208 kts | 230° |
| 2026-04-27 16:08 | 26.44072 | 50.52464 | 3010 ft | 207 kts | 217° |
| 2026-04-27 16:08 | 26.42878 | 50.51564 | 2994 ft | 207 kts | 214° |
| 2026-04-27 16:09 | 26.41673 | 50.50678 | 2990 ft | 207 kts | 213° |
| 2026-04-27 16:09 | 26.39213 | 50.49004 | 2983 ft | 207 kts | 197° |
| 2026-04-27 16:09 | 26.37788 | 50.48879 | 2988 ft | 206 kts | 178° |
| 2026-04-27 16:10 | 26.34979 | 50.49354 | 2974 ft | 206 kts | 154° |
| 2026-04-27 16:10 | 26.33306 | 50.51841 | 2649 ft | 203 kts | 117° |
| 2026-04-27 16:11 | 26.32702 | 50.53242 | 2311 ft | 201 kts | 117° |
| 2026-04-27 16:11 | 26.31400 | 50.55896 | 1351 ft | 188 kts | 121° |
| 2026-04-27 16:12 | 26.30085 | 50.58162 | 809 ft | 164 kts | 122° |
| 2026-04-27 16:12 | 26.29464 | 50.59236 | 587 ft | 162 kts | 122° |
| 2026-04-27 16:12 | 26.28257 | 50.61331 | 167 ft | 162 kts | 122° |
| 2026-04-27 16:13 | 26.27656 | 50.62379 | 20 ft | 155 kts | 122° |
| 2026-04-27 16:13 | 26.26991 | 50.63539 | 19 ft | 40 kts | 124° |
| 2026-04-27 16:13 | 26.26859 | 50.63732 | 19 ft | 12 kts | 167° |
| 2026-04-27 16:14 | 26.26704 | 50.63749 | 19 ft | 11 kts | 174° |
| 2026-04-27 16:14 | 26.26582 | 50.63763 | 19 ft | 5 kts | 197° |
| 2026-04-27 16:15 | 26.26524 | 50.63768 | 20 ft | 5 kts | 122° |
| 2026-04-27 16:15 | 26.26490 | 50.63827 | 19 ft | 4 kts | 122° |
| 2026-04-27 16:16 | 26.26460 | 50.63882 | 20 ft | 4 kts | 121° |
| 2026-04-27 16:16 | 26.26422 | 50.63889 | 20 ft | 4 kts | 231° |
| 2026-04-27 16:17 | 26.26394 | 50.63856 | 19 ft | 4 kts | 204° |
| 2026-04-27 16:17 | 26.26376 | 50.63845 | 19 ft | 0 kts | 212° |